Weather History for Oscoda, MI

Change the Weather History Date:

Thursday, April 17, 2014

  Actual Average Record
Temperature  
Mean Temperature 42 °F -  
Max Temperature 49 °F 50 °F 84 °F (2002)
Min Temperature 34 °F 32 °F 27 °F (2013)
Degree Days  
Heating Degree Days 24    
Moisture  
Dew Point 29 °F    
Average Humidity 64    
Maximum Humidity 80    
Minimum Humidity 52    
Precipitation  
Precipitation 0.00 in - - ()
Sea Level Pressure  
Sea Level Pressure 30.30 in    
Wind  
Wind Speed 9 mph (SE)    
Max Wind Speed 15 mph    
Max Gust Speed 23 mph    
Visibility 10 miles    
Events      
Averages and records for this station are not official NWS values.
T = Trace of Precipitation, MM = Missing Value Source: NWS Daily Summary

Daily Weather History Graph

Daily Weather History Graph

Search for Another Location

Airport:

Trip Planner

Search our weather history database for the weather conditions in past years. The results will help you decide how hot, cold, wet, or windy it might be!

Date:

Astronomy

Apr. 17, 2014 Rise Set
Actual Time 6:46 AM EDT 8:20 PM EDT
Civil Twilight 6:15 AM EDT 8:51 PM EDT
Nautical Twilight 5:38 AM EDT 9:28 PM EDT
Astronomical Twilight 4:59 AM EDT 10:08 PM EDT
Moon 11:10 PM EDT (4/17) 8:13 AM EDT (4/17)
Length of Visible Light 14h 35m
Length of Day
13h 34m
Waning Gibbous, 94% of the Moon is Illuminated
Apr 17
Waning Gibbous
Apr 22
Last Quarter
Apr 29
New
May 6
First Quarter
May 14
Full

Hourly Weather History & Observations

Time (EDT) Temp. Windchill Dew Point Humidity Pressure Visibility Wind Dir Wind Speed Gust Speed Precip Events Conditions
12:14 AM 35.6 °F 28.0 °F 22.5 °F 59% 30.40 in 10.0 mi SE 10.4 mph - N/A   Scattered Clouds
12:34 AM 35.8 °F 27.8 °F 19.9 °F 53% 30.40 in 10.0 mi SSE 11.5 mph 16.1 mph N/A   Clear
12:54 AM 35.8 °F 28.3 °F 20.8 °F 55% 30.40 in 10.0 mi SSE 10.4 mph 18.4 mph N/A   Clear
1:14 AM 35.8 °F 28.3 °F 23.4 °F 61% 30.40 in 10.0 mi SE 10.4 mph - N/A   Scattered Clouds
1:33 AM 35.8 °F 28.8 °F 23.7 °F 62% 30.40 in 10.0 mi SE 9.2 mph - N/A   Mostly Cloudy
1:54 AM 36.0 °F 31.1 °F 23.4 °F 60% 30.40 in 10.0 mi SE 5.8 mph - N/A   Overcast
2:14 AM 35.8 °F 29.4 °F 22.6 °F 59% 30.40 in 10.0 mi SE 8.1 mph - N/A   Overcast
2:33 AM 35.6 °F 29.9 °F 22.5 °F 59% 30.40 in 10.0 mi SE 6.9 mph - N/A   Overcast
2:54 AM 35.6 °F 28.6 °F 22.5 °F 59% 30.39 in 10.0 mi SE 9.2 mph - N/A   Overcast
3:14 AM 35.6 °F 28.0 °F 24.8 °F 65% 30.39 in 10.0 mi SE 10.4 mph - N/A   Overcast
3:33 AM 35.6 °F 29.9 °F 25.3 °F 66% 30.39 in 10.0 mi SE 6.9 mph - N/A   Overcast
3:54 AM 35.6 °F 28.0 °F 23.4 °F 61% 30.40 in 10.0 mi SE 10.4 mph 17.3 mph N/A   Overcast
4:14 AM 35.8 °F 30.1 °F 23.0 °F 60% 30.40 in 10.0 mi SSE 6.9 mph - N/A   Overcast
4:33 AM 35.6 °F 29.2 °F 23.7 °F 62% 30.40 in 10.0 mi SE 8.1 mph - N/A   Mostly Cloudy
4:54 AM 35.2 °F 27.6 °F 25.7 °F 68% 30.40 in 10.0 mi SE 10.4 mph - N/A   Clear
5:14 AM 35.2 °F 27.6 °F 26.8 °F 71% 30.40 in 10.0 mi SE 10.4 mph - N/A   Clear
5:33 AM 35.1 °F 27.4 °F 27.1 °F 73% 30.40 in 10.0 mi SE 10.4 mph - N/A   Clear
5:54 AM 35.1 °F 27.9 °F 27.0 °F 72% 30.40 in 10.0 mi SE 9.2 mph 16.1 mph N/A   Scattered Clouds
6:14 AM 35.1 °F 28.6 °F 27.0 °F 72% 30.40 in 10.0 mi SE 8.1 mph - N/A   Scattered Clouds
6:33 AM 35.1 °F 27.9 °F 27.0 °F 72% 30.40 in 10.0 mi SE 9.2 mph - N/A   Scattered Clouds
6:54 AM 34.9 °F 27.1 °F 26.2 °F 71% 30.40 in 10.0 mi SE 10.4 mph 16.1 mph N/A   Clear
7:14 AM 35.1 °F 26.9 °F 25.3 °F 68% 30.39 in 10.0 mi ESE 11.5 mph 17.3 mph N/A   Clear
7:33 AM 35.1 °F 26.4 °F 25.0 °F 67% 30.39 in 10.0 mi ESE 12.7 mph 21.9 mph N/A   Clear
7:54 AM 35.1 °F 25.9 °F 24.6 °F 66% 30.39 in 10.0 mi ESE 13.8 mph 20.7 mph N/A   Clear
8:13 AM 35.2 °F 26.6 °F 25.5 °F 68% 30.38 in 10.0 mi ESE 12.7 mph 18.4 mph N/A   Clear
8:34 AM 36.3 °F 27.1 °F 25.9 °F 66% 30.37 in 10.0 mi ESE 15.0 mph 23.0 mph N/A   Clear
8:54 AM 36.5 °F 27.8 °F 25.7 °F 65% 30.38 in 10.0 mi ESE 13.8 mph 23.0 mph N/A   Clear
9:13 AM 37.4 °F 28.9 °F 26.1 °F 64% 30.38 in 10.0 mi ESE 13.8 mph 20.7 mph N/A   Clear
9:34 AM 37.6 °F 29.6 °F 26.2 °F 64% 30.38 in 10.0 mi SE 12.7 mph 19.6 mph N/A   Clear
9:54 AM 37.9 °F 30.0 °F 26.6 °F 64% 30.38 in 10.0 mi SE 12.7 mph 16.1 mph N/A   Clear
10:13 AM 39.2 °F 31.6 °F 26.8 °F 61% 30.37 in 10.0 mi SE 12.7 mph 17.3 mph N/A   Clear
10:34 AM 39.4 °F 31.4 °F 27.1 °F 62% 30.37 in 10.0 mi SSE 13.8 mph 19.6 mph N/A   Clear
10:54 AM 39.7 °F 32.7 °F 27.7 °F 62% 30.35 in 10.0 mi SE 11.5 mph 18.4 mph N/A   Clear
11:13 AM 39.9 °F 32.9 °F 28.0 °F 63% 30.34 in 10.0 mi SE 11.5 mph 16.1 mph N/A   Clear
11:34 AM 41.2 °F 34.5 °F 28.6 °F 61% 30.33 in 10.0 mi SE 11.5 mph - N/A   Clear
11:54 AM 41.5 °F 35.0 °F 28.6 °F 60% 30.32 in 10.0 mi ESE 11.5 mph - N/A   Clear
12:13 PM 42.6 °F 36.3 °F 29.1 °F 59% 30.32 in 10.0 mi SE 11.5 mph - N/A   Clear
12:34 PM 42.8 °F 37.5 °F 29.3 °F 59% 30.31 in 10.0 mi ESE 9.2 mph 16.1 mph N/A   Clear
12:54 PM 43.3 °F 37.2 °F 29.8 °F 59% 30.30 in 10.0 mi ESE 11.5 mph - N/A   Clear
1:14 PM 43.2 °F 38.4 °F 30.0 °F 60% 30.30 in 10.0 mi ESE 8.1 mph - N/A   Clear
1:34 PM 44.2 °F 38.8 °F 30.4 °F 58% 30.29 in 10.0 mi ESE 10.4 mph - N/A   Clear
1:54 PM 44.2 °F 39.2 °F 31.3 °F 60% 30.28 in 10.0 mi East 9.2 mph - N/A   Clear
2:14 PM 45.0 °F 39.3 °F 31.8 °F 60% 30.27 in 10.0 mi ESE 11.5 mph - N/A   Scattered Clouds
2:34 PM 45.1 °F 40.3 °F 31.8 °F 60% 30.27 in 10.0 mi ESE 9.2 mph - N/A   Scattered Clouds
2:53 PM 45.9 °F 41.2 °F 31.8 °F 58% 30.26 in 10.0 mi ESE 9.2 mph - N/A   Scattered Clouds
3:14 PM 46.0 °F 41.4 °F 32.0 °F 58% 30.24 in 10.0 mi ESE 9.2 mph - N/A   Scattered Clouds
3:34 PM 46.6 °F - 32.0 °F 57% 30.23 in 10.0 mi SE 9.2 mph - N/A   Clear
3:53 PM 47.7 °F - 32.0 °F 55% 30.23 in 10.0 mi ESE 11.5 mph 16.1 mph N/A   Clear
4:14 PM 48.7 °F - 31.8 °F 52% 30.22 in 10.0 mi ESE 9.2 mph 19.6 mph N/A   Clear
4:34 PM 48.7 °F - 32.0 °F 52% 30.22 in 10.0 mi SE 11.5 mph - N/A   Clear
4:53 PM 49.1 °F - 32.0 °F 52% 30.22 in 10.0 mi ESE 9.2 mph - N/A   Clear
5:14 PM 48.7 °F - 32.0 °F 52% 30.22 in 10.0 mi SE 12.7 mph - N/A   Clear
5:34 PM 48.7 °F - 32.0 °F 52% 30.21 in 10.0 mi ESE 10.4 mph - N/A   Clear
5:53 PM 48.7 °F - 32.0 °F 52% 30.21 in 10.0 mi SE 10.4 mph - N/A   Clear
6:14 PM 48.2 °F - 32.4 °F 54% 30.20 in 10.0 mi SE 5.8 mph - N/A   Clear
6:34 PM 48.4 °F - 32.9 °F 55% 30.20 in 10.0 mi SE 6.9 mph 10.4 mph N/A   Clear
6:53 PM 48.2 °F - 32.9 °F 55% 30.19 in 10.0 mi SE 9.2 mph - N/A   Clear
7:14 PM 46.6 °F - 33.3 °F 60% 30.19 in 10.0 mi SE 6.9 mph - N/A   Clear
7:34 PM 45.5 °F 43.2 °F 33.8 °F 64% 30.18 in 10.0 mi SE 4.6 mph - N/A   Clear
7:53 PM 45.0 °F 42.6 °F 34.2 °F 66% 30.18 in 10.0 mi SE 4.6 mph - N/A   Clear
8:14 PM 43.3 °F 41.7 °F 34.0 °F 70% 30.18 in 10.0 mi East 3.5 mph - N/A   Clear
8:34 PM 42.8 °F - 34.3 °F 72% 30.18 in 10.0 mi Calm Calm - N/A   Clear
8:53 PM 42.4 °F 40.7 °F 34.5 °F 74% 30.18 in 10.0 mi East 3.5 mph - N/A   Clear
9:14 PM 41.9 °F - 34.7 °F 76% 30.18 in 10.0 mi Calm Calm - N/A   Clear
9:34 PM 41.0 °F - 34.3 °F 77% 30.19 in 10.0 mi Calm Calm - N/A   Scattered Clouds
9:53 PM 39.6 °F - 33.8 °F 80% 30.19 in 10.0 mi Calm Calm - N/A   Mostly Cloudy
10:14 PM 40.5 °F - 34.3 °F 79% 30.19 in 10.0 mi Calm Calm - N/A   Overcast
10:34 PM 39.6 °F 33.5 °F 33.4 °F 79% 30.19 in 10.0 mi NW 9.2 mph - N/A   Overcast
10:53 PM 39.0 °F 36.8 °F 33.3 °F 80% 30.20 in 10.0 mi NW 3.5 mph - N/A   Overcast
11:14 PM 39.7 °F - 33.3 °F 78% 30.19 in 10.0 mi Calm Calm - N/A   Overcast
11:34 PM 39.4 °F 34.5 °F 32.9 °F 78% 30.21 in 10.0 mi NW 6.9 mph - N/A   Mostly Cloudy
11:53 PM 40.8 °F 36.9 °F 32.9 °F 73% 30.21 in 10.0 mi WNW 5.8 mph - N/A   Scattered Clouds